createdAt,value
2019-05-16T00:00:58.647Z,1.53
2019-05-16T00:03:28.118Z,1.20
2019-05-16T00:05:55.027Z,2.27
2019-05-16T00:08:21.742Z,1.40
2019-05-16T00:10:48.795Z,1.60
2019-05-16T00:13:15.634Z,1.60
2019-05-16T00:15:42.364Z,1.60
2019-05-16T00:18:09.070Z,1.50
2019-05-16T00:20:35.771Z,1.40
2019-05-16T00:23:04.780Z,1.53
2019-05-16T00:25:32.076Z,1.60
2019-05-16T00:27:58.940Z,1.60
2019-05-16T00:30:25.556Z,1.40
2019-05-16T00:32:52.276Z,1.33
2019-05-16T00:35:19.068Z,1.50
2019-05-16T00:37:48.140Z,1.70
2019-05-16T00:40:14.522Z,1.43
2019-05-16T00:42:41.435Z,1.50
2019-05-16T00:45:09.292Z,1.40
2019-05-16T00:47:38.678Z,1.33
2019-05-16T00:50:05.010Z,1.53
2019-05-16T00:52:31.899Z,1.40
2019-05-16T00:54:58.598Z,1.20
2019-05-16T00:57:25.463Z,1.43
2019-05-16T00:59:52.315Z,1.70
2019-05-16T01:02:19.018Z,1.70
2019-05-16T01:04:45.719Z,1.60
2019-05-16T01:07:12.526Z,1.57
2019-05-16T01:09:39.234Z,1.40
2019-05-16T01:12:08.941Z,1.77
2019-05-16T01:14:38.434Z,1.50
2019-05-16T01:17:08.649Z,1.57
2019-05-16T01:19:37.868Z,1.80
2019-05-16T01:22:04.214Z,1.50
2019-05-16T01:24:30.917Z,1.83
2019-05-16T01:26:57.833Z,1.67
2019-05-16T01:29:24.634Z,1.67
2019-05-16T01:31:52.036Z,1.57
2019-05-16T01:34:18.742Z,1.83
2019-05-16T01:36:45.465Z,1.60
2019-05-16T01:39:12.178Z,1.53
2019-05-16T01:41:39.148Z,1.57
2019-05-16T01:44:07.866Z,1.53
2019-05-16T01:46:39.109Z,1.50
2019-05-16T01:49:08.164Z,1.70
2019-05-16T01:51:34.812Z,1.87
2019-05-16T01:54:01.555Z,1.40
2019-05-16T01:56:28.244Z,1.60
2019-05-16T01:58:54.978Z,1.60
2019-05-16T02:01:24.201Z,1.50
2019-05-16T02:03:52.188Z,1.50
2019-05-16T02:06:18.909Z,1.50
2019-05-16T02:08:45.731Z,1.70
2019-05-16T02:11:12.408Z,1.70
2019-05-16T02:13:39.263Z,1.43
2019-05-16T02:16:08.672Z,1.20
2019-05-16T02:18:35.388Z,1.53
2019-05-16T02:21:04.902Z,1.57
2019-05-16T02:23:33.496Z,1.50
2019-05-16T02:26:19.830Z,1.40
2019-05-16T02:28:46.537Z,1.63
2019-05-16T02:31:15.509Z,2.00
2019-05-16T02:33:44.795Z,1.70
2019-05-16T02:36:11.519Z,1.60
2019-05-16T02:38:38.233Z,1.77
2019-05-16T02:41:04.950Z,1.57
2019-05-16T02:43:31.915Z,1.60
2019-05-16T02:46:01.213Z,1.80
2019-05-16T02:48:27.314Z,1.63
2019-05-16T02:50:54.040Z,1.60
2019-05-16T02:53:22.486Z,1.73
2019-05-16T02:55:51.539Z,1.83
2019-05-16T02:58:23.395Z,1.93
2019-05-16T03:00:51.472Z,2.00
2019-05-16T03:03:22.219Z,1.80
2019-05-16T03:05:53.021Z,1.83
2019-05-16T03:08:21.023Z,2.00
2019-05-16T03:10:51.758Z,2.10
2019-05-16T03:13:17.154Z,2.30
2019-05-16T03:16:23.151Z,1.97
2019-05-16T03:18:51.565Z,2.00
2019-05-16T03:21:21.442Z,1.97
2019-05-16T03:23:50.766Z,1.80
2019-05-16T03:26:40.698Z,2.00
2019-05-16T03:29:25.615Z,1.80
2019-05-16T03:31:54.165Z,2.30
2019-05-16T03:34:43.890Z,2.10
2019-05-16T03:37:14.282Z,2.10
2019-05-16T03:39:40.538Z,2.53
2019-05-16T03:42:06.476Z,2.20
2019-05-16T03:44:33.589Z,2.40
2019-05-16T03:47:01.121Z,1.90
2019-05-16T03:49:31.166Z,2.00
2019-05-16T03:52:01.466Z,2.20
2019-05-16T03:54:27.756Z,2.60
2019-05-16T03:56:54.472Z,2.40
2019-05-16T03:59:21.679Z,1.80
2019-05-16T04:01:51.034Z,1.90
2019-05-16T04:04:20.979Z,2.00
2019-05-16T04:06:46.822Z,1.70
2019-05-16T04:09:13.548Z,1.90
2019-05-16T04:11:43.164Z,2.00
2019-05-16T04:14:10.831Z,2.20
2019-05-16T04:16:41.204Z,1.70
2019-05-16T04:19:06.540Z,1.80
2019-05-16T04:21:33.259Z,1.80
2019-05-16T04:24:02.464Z,2.03
2019-05-16T04:26:30.889Z,1.97
2019-05-16T04:29:00.563Z,1.83
2019-05-16T04:31:26.586Z,2.33
2019-05-16T04:33:53.328Z,2.20
2019-05-16T04:36:23.230Z,2.10
2019-05-16T04:38:51.536Z,2.10
2019-05-16T04:41:21.182Z,2.37
2019-05-16T04:43:46.975Z,2.50
2019-05-16T04:46:13.703Z,2.47
2019-05-16T04:48:41.728Z,3.00
2019-05-16T04:51:10.583Z,3.13
2019-05-16T04:53:37.354Z,2.53
2019-05-16T04:56:04.193Z,3.00
2019-05-16T04:58:31.831Z,2.90
2019-05-16T05:01:01.485Z,2.57
2019-05-16T05:03:27.433Z,3.93
2019-05-16T05:05:54.130Z,3.53
2019-05-16T05:08:21.822Z,2.90
2019-05-16T05:10:51.309Z,3.00
2019-05-16T05:13:21.618Z,2.57
2019-05-16T05:15:46.822Z,3.03
2019-05-16T05:18:16.396Z,3.03
2019-05-16T05:20:43.233Z,3.03
2019-05-16T05:23:09.965Z,3.10
2019-05-16T05:25:36.669Z,3.10
2019-05-16T05:28:10.042Z,2.07
2019-05-16T05:30:36.928Z,2.20
2019-05-16T05:33:04.002Z,3.47
2019-05-16T05:35:31.174Z,4.33
2019-05-16T05:38:00.341Z,2.57
2019-05-16T05:40:26.861Z,2.30
2019-05-16T05:42:53.641Z,2.50
2019-05-16T05:45:20.372Z,2.27
2019-05-16T05:47:47.203Z,2.40
2019-05-16T05:50:15.698Z,3.13
2019-05-16T05:52:45.990Z,3.10
2019-05-16T05:55:11.294Z,2.60
2019-05-16T05:57:40.330Z,2.83
2019-05-16T06:00:09.890Z,3.40
2019-05-16T06:02:36.783Z,2.50
2019-05-16T06:05:03.965Z,3.13
2019-05-16T06:07:30.658Z,2.67
2019-05-16T06:10:00.204Z,4.30
2019-05-16T06:12:26.383Z,2.80
2019-05-16T06:14:57.725Z,2.90
2019-05-16T06:17:24.859Z,3.17
2019-05-16T06:19:51.927Z,2.97
2019-05-16T06:22:21.932Z,3.10
2019-05-16T06:24:50.455Z,3.53
2019-05-16T06:27:22.024Z,2.97
2019-05-16T06:29:50.102Z,3.13
2019-05-16T06:32:19.829Z,2.80
2019-05-16T06:34:46.747Z,3.43
2019-05-16T06:37:13.464Z,3.67
2019-05-16T06:39:45.053Z,3.50
2019-05-16T06:42:09.818Z,3.20
2019-05-16T06:44:36.811Z,3.20
2019-05-16T06:47:15.984Z,3.40
2019-05-16T06:49:32.169Z,3.57
2019-05-16T06:51:59.667Z,3.40
2019-05-16T06:54:26.658Z,3.30
2019-05-16T06:56:53.380Z,3.20
2019-05-16T06:59:20.328Z,2.70
2019-05-16T07:01:47.095Z,2.57
2019-05-16T07:04:13.823Z,2.10
2019-05-16T07:06:54.174Z,2.60
2019-05-16T07:09:10.601Z,2.10
2019-05-16T07:11:39.654Z,2.70
2019-05-16T07:14:06.239Z,2.30
2019-05-16T07:16:32.974Z,2.10
2019-05-16T07:19:00.832Z,2.57
2019-05-16T07:21:27.839Z,2.47
2019-05-16T07:23:54.573Z,2.00
2019-05-16T07:26:21.316Z,2.40
2019-05-16T07:28:48.023Z,2.27
2019-05-16T07:31:18.747Z,2.70
2019-05-16T07:33:43.563Z,2.63
2019-05-16T07:36:10.401Z,2.40
2019-05-16T07:38:37.262Z,2.30
2019-05-16T07:41:03.994Z,2.30
2019-05-16T07:43:31.179Z,2.10
2019-05-16T07:46:00.205Z,1.77
2019-05-16T07:48:27.048Z,1.90
2019-05-16T07:50:53.779Z,1.90
2019-05-16T07:53:21.515Z,2.77
2019-05-16T07:55:50.997Z,1.80
2019-05-16T07:58:21.246Z,2.17
2019-05-16T08:00:56.884Z,2.10
2019-05-16T08:03:15.324Z,1.90
2019-05-16T08:05:43.821Z,2.23
2019-05-16T08:08:10.618Z,1.70
2019-05-16T08:10:41.686Z,2.30
2019-05-16T08:13:05.935Z,3.03
2019-05-16T08:15:32.692Z,1.40
2019-05-16T08:18:03.392Z,1.50
2019-05-16T08:20:31.377Z,2.07
2019-05-16T08:23:00.660Z,1.40
2019-05-16T08:25:31.355Z,1.80
2019-05-16T08:28:00.572Z,1.70
2019-05-16T08:30:26.083Z,1.43
2019-05-16T08:32:53.120Z,1.70
2019-05-16T08:35:21.073Z,1.70
2019-05-16T08:37:51.094Z,1.77
2019-05-16T08:40:21.062Z,1.80
2019-05-16T08:42:45.948Z,1.70
2019-05-16T08:45:13.141Z,1.60
2019-05-16T08:47:42.315Z,1.83
2019-05-16T08:50:13.714Z,1.83
2019-05-16T08:52:43.008Z,2.03
2019-05-16T08:55:07.124Z,1.83
2019-05-16T08:57:33.980Z,1.63
2019-05-16T09:00:01.798Z,1.63
2019-05-16T09:02:35.774Z,1.80
2019-05-16T09:04:57.346Z,1.73
2019-05-16T09:07:24.081Z,1.70
2019-05-16T09:09:53.687Z,1.53
2019-05-16T09:12:20.391Z,2.43
2019-05-16T09:14:48.174Z,1.73
2019-05-16T09:17:17.571Z,2.03
2019-05-16T09:19:44.130Z,1.97
2019-05-16T09:22:10.867Z,1.70
2019-05-16T09:24:37.963Z,1.80
2019-05-16T09:27:10.764Z,2.27
2019-05-16T09:29:33.458Z,2.90
2019-05-16T09:32:08.891Z,1.97
2019-05-16T09:34:28.819Z,2.07
2019-05-16T09:37:01.134Z,1.97
2019-05-16T09:39:28.135Z,2.83
2019-05-16T09:41:58.631Z,2.00
2019-05-16T09:44:27.214Z,2.10
2019-05-16T09:46:53.527Z,2.13
2019-05-16T09:49:24.549Z,2.27
2019-05-16T09:51:48.969Z,1.57
2019-05-16T09:54:16.827Z,2.40
2019-05-16T09:56:46.296Z,1.80
2019-05-16T09:59:12.660Z,2.03
2019-05-16T10:01:40.601Z,2.03
2019-05-16T10:04:07.915Z,2.10
2019-05-16T10:06:36.917Z,2.30
2019-05-16T10:09:06.449Z,1.73
2019-05-16T10:11:33.202Z,2.83
2019-05-16T10:13:59.954Z,1.80
2019-05-16T10:16:27.530Z,3.20
2019-05-16T10:18:56.818Z,3.50
2019-05-16T10:21:27.237Z,2.33
2019-05-16T10:23:53.843Z,2.10
2019-05-16T10:26:21.047Z,2.00
2019-05-16T10:28:48.402Z,1.63
2019-05-16T10:31:17.602Z,1.57
2019-05-16T10:33:43.821Z,2.17
2019-05-16T10:36:10.563Z,1.90
2019-05-16T10:38:37.563Z,2.00
2019-05-16T10:41:04.541Z,1.73
2019-05-16T10:43:31.247Z,1.80
2019-05-16T10:45:57.953Z,1.90
2019-05-16T10:48:26.973Z,1.70
2019-05-16T10:50:53.789Z,2.03
2019-05-16T10:53:50.171Z,1.93
2019-05-16T10:55:49.133Z,2.00
2019-05-16T10:58:34.032Z,1.90
2019-05-16T11:01:07.389Z,1.80
2019-05-16T11:03:13.462Z,3.10
2019-05-16T11:05:43.232Z,1.90
2019-05-16T11:08:09.943Z,1.80
2019-05-16T11:10:37.374Z,1.80
2019-05-16T11:13:04.449Z,2.10
2019-05-16T11:15:31.275Z,1.83
2019-05-16T11:18:00.115Z,2.20
2019-05-16T11:20:27.412Z,1.47
2019-05-16T11:22:56.963Z,1.87
2019-05-16T11:25:28.818Z,1.80
2019-05-16T11:27:51.805Z,1.90
2019-05-16T11:30:19.093Z,1.97
2019-05-16T11:32:46.976Z,9.47
2019-05-16T11:35:16.906Z,1.67
2019-05-16T11:37:42.848Z,1.60
2019-05-16T11:40:12.217Z,1.70
2019-05-16T11:42:39.711Z,1.90
2019-05-16T11:45:09.406Z,4.00
2019-05-16T11:47:36.772Z,2.00
2019-05-16T11:50:04.339Z,1.90
2019-05-16T11:52:31.078Z,1.90
2019-05-16T11:54:58.089Z,1.70
2019-05-16T11:57:24.826Z,2.20
2019-05-16T11:59:51.569Z,2.00
2019-05-16T12:02:30.452Z,1.90
2019-05-16T12:04:57.879Z,1.93
2019-05-16T12:07:32.230Z,2.40
2019-05-16T12:09:55.711Z,1.93
2019-05-16T12:12:22.621Z,2.40
2019-05-16T12:14:49.641Z,1.87
2019-05-16T12:17:16.654Z,1.77
2019-05-16T12:19:44.168Z,1.67
2019-05-16T12:22:11.206Z,2.10
2019-05-16T12:24:41.426Z,1.50
2019-05-16T12:27:08.573Z,2.30
2019-05-16T12:29:37.329Z,2.33
2019-05-16T12:32:07.221Z,1.80
2019-05-16T12:34:32.712Z,1.97
2019-05-16T12:36:59.779Z,1.80
2019-05-16T12:39:26.922Z,1.93
2019-05-16T12:41:53.832Z,2.67
2019-05-16T12:44:20.573Z,2.30
2019-05-16T12:46:47.603Z,2.47
2019-05-16T12:49:17.489Z,2.47
2019-05-16T12:51:46.661Z,2.50
2019-05-16T12:54:13.378Z,2.50
2019-05-16T12:56:40.128Z,2.23
2019-05-16T12:59:06.955Z,2.03
2019-05-16T13:01:34.532Z,1.93
2019-05-16T13:04:02.298Z,2.10
2019-05-16T13:06:29.228Z,2.97
2019-05-16T13:08:57.293Z,2.90
2019-05-16T13:11:26.833Z,2.47
2019-05-16T13:14:03.416Z,2.30
2019-05-16T13:16:24.333Z,2.60
2019-05-16T13:18:51.400Z,2.30
2019-05-16T13:21:22.519Z,2.50
2019-05-16T13:23:47.462Z,2.90
2019-05-16T13:26:14.173Z,2.80
2019-05-16T13:28:40.880Z,2.60
2019-05-16T13:31:07.941Z,2.33
2019-05-16T13:33:36.800Z,2.27
2019-05-16T13:36:03.458Z,2.70
2019-05-16T13:38:32.198Z,2.60
2019-05-16T13:40:58.858Z,2.87
2019-05-16T13:43:26.985Z,2.70
2019-05-16T13:45:54.147Z,2.40
2019-05-16T13:48:20.879Z,2.57
2019-05-16T13:50:47.634Z,3.93
2019-05-16T13:53:16.322Z,2.50
2019-05-16T13:55:43.013Z,2.43
2019-05-16T13:58:09.718Z,2.60
2019-05-16T14:00:37.481Z,3.13
2019-05-16T14:03:07.126Z,3.30
2019-05-16T14:05:33.473Z,2.67
2019-05-16T14:08:00.549Z,2.67
2019-05-16T14:10:29.683Z,3.20
2019-05-16T14:12:57.730Z,2.67
2019-05-16T14:15:26.933Z,2.73
2019-05-16T14:17:53.314Z,2.77
2019-05-16T14:20:20.399Z,2.60
2019-05-16T14:22:50.305Z,2.70
2019-05-16T14:25:17.120Z,11.30
2019-05-16T14:27:43.856Z,2.40
2019-05-16T14:30:10.720Z,2.37
2019-05-16T14:32:40.733Z,3.10
2019-05-16T14:35:08.511Z,2.47
2019-05-16T14:37:37.914Z,2.55
2019-05-16T14:40:04.709Z,2.63
2019-05-16T14:42:32.629Z,2.70
2019-05-16T14:45:10.510Z,2.50
2019-05-16T14:47:29.522Z,2.80
2019-05-16T14:49:56.305Z,2.50
2019-05-16T14:52:23.206Z,2.80
2019-05-16T14:54:51.838Z,2.57
2019-05-16T14:57:18.586Z,2.73
2019-05-16T14:59:47.153Z,2.60
2019-05-16T15:02:18.254Z,3.00
2019-05-16T15:04:49.248Z,4.00
2019-05-16T15:07:19.464Z,2.70
2019-05-16T15:09:47.003Z,2.67
2019-05-16T15:12:13.392Z,2.80
2019-05-16T15:14:40.314Z,2.50
2019-05-16T15:17:07.229Z,2.53
2019-05-16T15:19:34.324Z,3.30
2019-05-16T15:22:02.548Z,3.20
2019-05-16T15:24:30.606Z,2.60
2019-05-16T15:27:01.339Z,2.97
2019-05-16T15:29:27.007Z,2.53
2019-05-16T15:31:57.227Z,3.40
2019-05-16T15:34:24.067Z,2.63
2019-05-16T15:36:50.775Z,2.90
2019-05-16T15:39:18.022Z,3.23
2019-05-16T15:41:44.767Z,2.93
2019-05-16T15:44:11.873Z,3.30
2019-05-16T15:46:38.667Z,3.23
2019-05-16T15:49:09.640Z,2.53
2019-05-16T15:51:36.759Z,2.50
2019-05-16T15:54:02.745Z,2.77
2019-05-16T15:56:29.473Z,2.80
2019-05-16T15:58:56.219Z,2.53
2019-05-16T16:01:27.056Z,4.17
2019-05-16T16:03:53.682Z,2.90
2019-05-16T16:06:20.410Z,2.70
2019-05-16T16:08:47.675Z,2.87
2019-05-16T16:11:17.170Z,2.67
2019-05-16T16:13:43.990Z,3.20
2019-05-16T16:16:11.201Z,3.13
2019-05-16T16:18:38.069Z,2.70
2019-05-16T16:21:07.633Z,2.40
2019-05-16T16:23:37.050Z,2.60
2019-05-16T16:26:06.803Z,2.27
2019-05-16T16:28:32.785Z,2.97
2019-05-16T16:30:59.486Z,3.00
2019-05-16T16:33:29.917Z,2.90
2019-05-16T16:35:57.124Z,2.90
2019-05-16T16:38:24.081Z,3.30
2019-05-16T16:40:50.887Z,3.23
2019-05-16T16:43:17.604Z,2.63
2019-05-16T16:45:44.293Z,3.30
2019-05-16T16:48:11.017Z,2.90
2019-05-16T16:50:37.703Z,2.90
2019-05-16T16:53:06.968Z,3.00
2019-05-16T16:55:33.118Z,3.07
2019-05-16T16:57:59.892Z,3.33
2019-05-16T17:00:32.074Z,3.10
2019-05-16T17:03:06.214Z,2.90
2019-05-16T17:05:29.498Z,2.70
2019-05-16T17:07:59.202Z,3.00
2019-05-16T17:10:27.536Z,3.10
2019-05-16T17:12:57.655Z,3.10
2019-05-16T17:15:23.299Z,2.97
2019-05-16T17:17:49.991Z,3.23
2019-05-16T17:20:17.866Z,3.10
2019-05-16T17:22:47.156Z,2.60
2019-05-16T17:25:14.211Z,3.20
2019-05-16T17:27:40.961Z,3.47
2019-05-16T17:30:12.599Z,3.20
2019-05-16T17:32:39.307Z,3.03
2019-05-16T17:35:06.846Z,3.27
2019-05-16T17:37:34.354Z,2.80
2019-05-16T17:40:01.277Z,3.40
2019-05-16T17:42:28.227Z,3.10
2019-05-16T17:44:56.611Z,3.50
2019-05-16T17:47:23.408Z,3.20
2019-05-16T17:49:50.483Z,2.33
2019-05-16T17:52:17.469Z,3.03
2019-05-16T17:54:44.633Z,3.27
2019-05-16T17:57:11.449Z,3.13
2019-05-16T17:59:38.181Z,3.10
2019-05-16T18:02:06.436Z,4.43
2019-05-16T18:04:33.444Z,3.10
2019-05-16T18:07:00.163Z,3.00
2019-05-16T18:09:27.840Z,3.00
2019-05-16T18:11:54.732Z,3.30
2019-05-16T18:14:21.660Z,2.83
2019-05-16T18:16:58.422Z,3.30
2019-05-16T18:19:18.104Z,3.07
2019-05-16T18:21:46.412Z,2.43
2019-05-16T18:24:13.351Z,2.97
2019-05-16T18:26:40.077Z,3.03
2019-05-16T18:29:07.055Z,3.00
2019-05-16T18:31:33.775Z,2.70
2019-05-16T18:34:00.506Z,3.10
2019-05-16T18:36:27.508Z,3.40
2019-05-16T18:38:54.237Z,2.60
2019-05-16T18:41:22.257Z,3.40
2019-05-16T18:43:49.133Z,3.20
2019-05-16T18:46:16.348Z,3.00
2019-05-16T18:48:43.110Z,3.97
2019-05-16T18:51:09.787Z,3.00
2019-05-16T18:53:37.487Z,3.70
2019-05-16T18:56:04.480Z,3.93
2019-05-16T18:58:31.193Z,3.93
2019-05-16T19:00:57.936Z,3.30
2019-05-16T19:03:26.859Z,3.47
2019-05-16T19:05:53.235Z,3.33
2019-05-16T19:08:19.955Z,3.30
2019-05-16T19:10:47.279Z,3.30
2019-05-16T19:13:16.713Z,3.90
2019-05-16T19:15:43.121Z,3.30
2019-05-16T19:18:09.831Z,3.33
2019-05-16T19:20:37.543Z,4.00
2019-05-16T19:23:06.967Z,3.63
2019-05-16T19:25:33.227Z,3.23
2019-05-16T19:28:00.273Z,3.40
2019-05-16T19:30:26.959Z,3.23
2019-05-16T19:32:57.452Z,3.10
2019-05-16T19:35:24.444Z,3.40
2019-05-16T19:37:52.037Z,3.10
2019-05-16T19:40:18.859Z,3.03
2019-05-16T19:42:47.148Z,3.20
2019-05-16T19:45:14.079Z,3.10
2019-05-16T19:47:41.402Z,3.20
2019-05-16T19:50:08.410Z,2.87
2019-05-16T19:52:36.599Z,3.10
2019-05-16T19:55:03.955Z,2.80
2019-05-16T19:57:30.642Z,2.80
2019-05-16T19:59:57.669Z,2.77
2019-05-16T20:02:24.384Z,3.07
2019-05-16T20:04:51.103Z,3.10
2019-05-16T20:07:17.802Z,2.50
2019-05-16T20:09:46.810Z,2.70
2019-05-16T20:12:13.129Z,3.30
2019-05-16T20:14:42.991Z,2.70
2019-05-16T20:17:11.918Z,2.80
2019-05-16T20:19:38.629Z,2.70
2019-05-16T20:22:07.515Z,2.57
2019-05-16T20:24:36.179Z,2.80
2019-05-16T20:27:05.144Z,2.83
2019-05-16T20:29:31.829Z,3.30
2019-05-16T20:31:59.417Z,2.80
2019-05-16T20:34:26.894Z,3.10
2019-05-16T20:36:53.543Z,2.90
2019-05-16T20:39:20.369Z,3.00
2019-05-16T20:41:47.542Z,2.70
2019-05-16T20:44:14.480Z,2.77
2019-05-16T20:46:41.524Z,3.17
2019-05-16T20:49:08.922Z,3.10
2019-05-16T20:51:37.574Z,3.40
2019-05-16T20:54:06.941Z,2.87
2019-05-16T20:56:34.057Z,3.40
2019-05-16T20:59:00.740Z,3.87
2019-05-16T21:01:27.672Z,4.00
2019-05-16T21:03:54.396Z,3.50
2019-05-16T21:06:21.423Z,3.70
2019-05-16T21:08:49.628Z,3.30
2019-05-16T21:11:17.258Z,3.10
2019-05-16T21:13:48.606Z,3.10
2019-05-16T21:16:13.340Z,3.33
2019-05-16T21:18:40.041Z,3.57
2019-05-16T21:21:07.680Z,3.87
2019-05-16T21:23:36.591Z,3.90
2019-05-16T21:26:03.447Z,3.00
2019-05-16T21:28:33.659Z,3.47
2019-05-16T21:31:00.354Z,4.00
2019-05-16T21:33:27.428Z,3.93
2019-05-16T21:35:56.369Z,2.90
2019-05-16T21:38:23.189Z,3.43
2019-05-16T21:40:49.921Z,3.47
2019-05-16T21:43:16.905Z,3.80
2019-05-16T21:45:43.798Z,4.03
2019-05-16T21:48:10.468Z,3.67
2019-05-16T21:50:37.189Z,3.47
2019-05-16T21:53:03.896Z,3.83
2019-05-16T21:55:30.927Z,3.90
2019-05-16T21:57:57.644Z,3.80
2019-05-16T22:00:33.892Z,3.80
2019-05-16T22:03:00.601Z,3.90
2019-05-16T22:05:29.654Z,3.80
2019-05-16T22:07:58.974Z,3.53
2019-05-16T22:10:26.649Z,4.00
2019-05-16T22:12:53.614Z,4.43
2019-05-16T22:15:20.290Z,3.83
2019-05-16T22:17:47.296Z,4.03
2019-05-16T22:20:16.362Z,4.63
2019-05-16T22:22:42.965Z,4.40
2019-05-16T22:25:09.770Z,4.07
2019-05-16T22:27:37.627Z,4.00
2019-05-16T22:30:07.037Z,3.90
2019-05-16T22:32:36.258Z,4.00
2019-05-16T22:35:07.605Z,3.73
2019-05-16T22:37:46.168Z,3.53
2019-05-16T22:40:02.181Z,4.20
2019-05-16T22:42:30.536Z,3.87
2019-05-16T22:44:57.186Z,3.33
2019-05-16T22:47:26.652Z,3.67
2019-05-16T22:49:53.369Z,3.87
2019-05-16T22:52:20.163Z,4.07
2019-05-16T22:54:50.808Z,3.80
2019-05-16T22:57:17.814Z,3.57
2019-05-16T22:59:44.701Z,4.13
2019-05-16T23:02:12.544Z,3.93
2019-05-16T23:04:39.544Z,3.93
2019-05-16T23:07:07.035Z,3.90
2019-05-16T23:09:36.444Z,4.20
2019-05-16T23:12:06.929Z,4.37
2019-05-16T23:14:36.478Z,4.17
2019-05-16T23:17:03.586Z,4.10
2019-05-16T23:19:30.294Z,3.90
2019-05-16T23:21:56.981Z,4.87
2019-05-16T23:24:26.176Z,4.77
2019-05-16T23:26:52.994Z,4.73
2019-05-16T23:29:19.938Z,4.67
2019-05-16T23:31:47.153Z,5.00
2019-05-16T23:34:14.124Z,4.43
2019-05-16T23:36:40.836Z,4.30
2019-05-16T23:39:07.547Z,4.73
2019-05-16T23:41:36.643Z,4.23
2019-05-16T23:44:02.846Z,4.60
2019-05-16T23:46:29.510Z,4.50
2019-05-16T23:48:58.028Z,4.40
2019-05-16T23:51:24.710Z,4.80
2019-05-16T23:53:51.407Z,4.73
2019-05-16T23:56:18.078Z,4.57
2019-05-16T23:58:44.819Z,4.30
